Terminal Aerodrome Forecast
Issued by NWS

Home | Current Version | Previous Version | Text Only | Print | Product List | Glossary On
Versions: 1 2 3 4 5 6 7 8 9 10 11 12 13 14 15 16 17 18 19
336
FTUS45 KABQ 261141
TAFTCC
TAF
KTCC 261141Z 2612/2712 27011KT P6SM FEW025 SCT200
     FM261700 17010KT P6SM FEW045
     FM262300 16008KT P6SM SCT060 BKN100
     FM270700 19008KT P6SM SCT150=

USA.gov is the U.S. government's official web portal to all federal, state and local government web resources and services.